createdAt,value
2023-01-25T00:02:12.805Z,50.90
2023-01-25T00:04:40.972Z,50.60
2023-01-25T00:07:09.256Z,51.10
2023-01-25T00:09:37.624Z,51.10
2023-01-25T00:12:06.258Z,51.60
2023-01-25T00:14:34.541Z,51.20
2023-01-25T00:17:05.022Z,51.30
2023-01-25T00:19:33.292Z,51.60
2023-01-25T00:22:01.606Z,51.70
2023-01-25T00:24:29.946Z,51.70
2023-01-25T00:26:58.289Z,51.70
2023-01-25T00:29:26.449Z,51.90
2023-01-25T00:32:09.653Z,52.20
2023-01-25T00:34:47.096Z,52.50
2023-01-25T00:37:21.737Z,52.70
2023-01-25T00:39:49.955Z,52.50
2023-01-25T00:42:19.528Z,52.60
2023-01-25T00:44:48.394Z,52.90
2023-01-25T00:47:18.670Z,52.40
2023-01-25T00:49:47.576Z,52.20
2023-01-25T00:52:16.406Z,52.10
2023-01-25T00:54:45.290Z,51.70
2023-01-25T00:57:13.595Z,51.70
2023-01-25T00:59:44.624Z,52.00
2023-01-25T01:02:14.079Z,52.30
2023-01-25T01:04:43.873Z,52.30
2023-01-25T01:07:14.493Z,52.40
2023-01-25T01:09:43.026Z,52.80
2023-01-25T01:12:11.296Z,52.40
2023-01-25T01:14:39.702Z,52.50
2023-01-25T01:17:07.860Z,52.40
2023-01-25T01:19:36.535Z,52.30
2023-01-25T01:22:06.110Z,52.20
2023-01-25T01:24:34.462Z,52.60
2023-01-25T01:27:04.348Z,52.40
2023-01-25T01:29:33.161Z,52.50
2023-01-25T01:32:01.446Z,52.20
2023-01-25T01:34:29.799Z,52.20
2023-01-25T01:36:58.038Z,52.20
2023-01-25T01:39:27.729Z,51.90
2023-01-25T01:41:56.181Z,51.80
2023-01-25T01:44:45.412Z,52.40
2023-01-25T01:47:20.924Z,52.60
2023-01-25T01:49:55.016Z,52.10
2023-01-25T01:52:29.916Z,51.80
2023-01-25T01:55:04.488Z,51.40
2023-01-25T01:57:37.574Z,51.50
2023-01-25T02:00:09.764Z,51.60
2023-01-25T02:02:47.458Z,51.50
2023-01-25T02:05:20.639Z,51.60
2023-01-25T02:07:52.759Z,51.80
2023-01-25T02:10:24.568Z,51.40
2023-01-25T02:12:56.594Z,51.70
2023-01-25T02:15:28.769Z,52.50
2023-01-25T02:17:56.938Z,52.60
2023-01-25T02:20:30.128Z,52.50
2023-01-25T02:23:06.459Z,53.10
2023-01-25T02:25:36.107Z,53.50
2023-01-25T02:28:10.421Z,53.50
2023-01-25T02:30:38.878Z,53.60
2023-01-25T02:33:07.068Z,53.50
2023-01-25T02:35:42.888Z,54.20
2023-01-25T02:38:14.255Z,54.00
2023-01-25T02:40:48.580Z,54.10
2023-01-25T02:43:18.049Z,54.10
2023-01-25T02:45:50.814Z,54.20
2023-01-25T02:48:19.006Z,54.10
2023-01-25T02:50:47.796Z,54.00
2023-01-25T02:53:15.992Z,54.30
2023-01-25T02:55:46.418Z,55.00
2023-01-25T02:58:14.612Z,55.40
2023-01-25T03:00:43.136Z,55.20
2023-01-25T03:03:11.671Z,55.00
2023-01-25T03:05:40.260Z,55.30
2023-01-25T03:08:08.451Z,55.40
2023-01-25T03:10:36.665Z,55.30
2023-01-25T03:13:06.353Z,55.10
2023-01-25T03:15:35.806Z,55.20
2023-01-25T03:18:04.894Z,55.00
2023-01-25T03:20:36.133Z,55.30
2023-01-25T03:23:12.225Z,55.00
2023-01-25T03:25:43.482Z,54.80
2023-01-25T03:28:18.731Z,54.40
2023-01-25T03:30:54.059Z,54.80
2023-01-25T03:33:22.442Z,54.90
2023-01-25T03:35:53.330Z,54.80
2023-01-25T03:38:21.966Z,54.70
2023-01-25T03:40:50.399Z,55.50
2023-01-25T03:43:21.054Z,55.60
2023-01-25T03:45:56.103Z,55.90
2023-01-25T03:48:26.458Z,56.10
2023-01-25T03:50:56.291Z,56.30
2023-01-25T03:53:29.562Z,56.00
2023-01-25T03:56:09.556Z,56.00
2023-01-25T03:58:40.823Z,56.00
2023-01-25T04:01:10.931Z,56.40
2023-01-25T04:03:39.637Z,56.40
2023-01-25T04:06:08.750Z,56.80
2023-01-25T04:08:37.432Z,57.20
2023-01-25T04:11:09.353Z,57.30
2023-01-25T04:13:40.593Z,57.70
2023-01-25T04:16:12.765Z,58.40
2023-01-25T04:19:00.539Z,58.60
2023-01-25T04:21:30.839Z,58.50
2023-01-25T04:23:59.193Z,58.80
2023-01-25T04:26:27.681Z,58.50
2023-01-25T04:29:01.999Z,59.10
2023-01-25T04:31:30.631Z,59.30
2023-01-25T04:33:59.809Z,59.90
2023-01-25T04:36:28.175Z,60.00
2023-01-25T04:38:58.299Z,59.70
2023-01-25T04:41:29.355Z,60.00
2023-01-25T04:43:58.583Z,59.80
2023-01-25T04:46:28.994Z,60.00
2023-01-25T04:48:57.957Z,60.20
2023-01-25T04:51:26.675Z,60.20
2023-01-25T04:53:55.485Z,60.30
2023-01-25T04:56:25.658Z,60.30
2023-01-25T04:58:57.878Z,60.30
2023-01-25T05:01:26.459Z,60.20
2023-01-25T05:03:56.489Z,60.50
2023-01-25T05:06:33.928Z,61.90
2023-01-25T05:09:02.679Z,61.40
2023-01-25T05:11:31.893Z,62.10
2023-01-25T05:14:07.891Z,62.00
2023-01-25T05:16:36.334Z,62.40
2023-01-25T05:19:06.778Z,62.50
2023-01-25T05:22:01.931Z,63.00
2023-01-25T05:24:45.583Z,62.60
2023-01-25T05:27:17.944Z,62.80
2023-01-25T05:29:55.931Z,62.60
2023-01-25T05:32:50.887Z,62.50
2023-01-25T05:35:20.875Z,62.70
2023-01-25T05:37:51.476Z,63.20
2023-01-25T05:40:24.378Z,63.40
2023-01-25T05:42:57.109Z,63.70
2023-01-25T05:45:27.443Z,63.10
2023-01-25T05:47:58.184Z,62.70
2023-01-25T05:50:28.224Z,62.60
2023-01-25T05:53:03.007Z,63.20
2023-01-25T05:55:31.914Z,63.70
2023-01-25T05:58:05.124Z,63.30
2023-01-25T06:00:33.983Z,63.50
2023-01-25T06:03:03.527Z,63.70
2023-01-25T06:05:35.871Z,63.70
2023-01-25T06:08:04.226Z,63.20
2023-01-25T06:10:53.241Z,63.20
2023-01-25T06:13:22.218Z,62.60
2023-01-25T06:15:54.110Z,62.60
2023-01-25T06:18:51.845Z,62.50
2023-01-25T06:21:21.583Z,62.70
2023-01-25T06:23:49.920Z,62.50
2023-01-25T06:26:18.382Z,62.00
2023-01-25T06:28:46.737Z,62.30
2023-01-25T06:31:16.892Z,61.70
2023-01-25T06:33:50.047Z,61.20
2023-01-25T06:36:22.841Z,61.50
2023-01-25T06:38:52.314Z,61.40
2023-01-25T06:41:21.610Z,61.20
2023-01-25T06:43:52.578Z,61.00
2023-01-25T06:46:21.590Z,60.80
2023-01-25T06:48:50.284Z,60.60
2023-01-25T06:51:19.325Z,61.00
2023-01-25T06:53:48.958Z,61.00
2023-01-25T06:56:19.523Z,61.80
2023-01-25T06:58:48.355Z,61.70
2023-01-25T07:01:19.866Z,61.80
2023-01-25T07:03:49.694Z,61.90
2023-01-25T07:06:19.656Z,61.70
2023-01-25T07:08:49.765Z,61.60
2023-01-25T07:11:19.206Z,61.80
2023-01-25T07:13:48.682Z,61.80
2023-01-25T07:16:21.785Z,61.80
2023-01-25T07:18:50.407Z,61.60
2023-01-25T07:21:21.375Z,61.70
2023-01-25T07:23:52.357Z,61.70
2023-01-25T07:26:22.688Z,62.10
2023-01-25T07:28:51.751Z,61.70
2023-01-25T07:31:21.420Z,61.30
2023-01-25T07:33:50.807Z,61.70
2023-01-25T07:36:20.044Z,61.60
2023-01-25T07:38:50.234Z,61.40
2023-01-25T07:41:18.344Z,61.70
2023-01-25T07:43:46.741Z,61.50
2023-01-25T07:46:21.861Z,61.30
2023-01-25T07:48:52.125Z,61.40
2023-01-25T07:51:26.646Z,61.10
2023-01-25T07:53:58.850Z,61.10
2023-01-25T07:56:29.221Z,60.80
2023-01-25T07:58:59.431Z,61.10
2023-01-25T08:01:29.495Z,61.10
2023-01-25T08:03:58.802Z,61.10
2023-01-25T08:06:35.915Z,61.40
2023-01-25T08:09:09.052Z,61.10
2023-01-25T08:11:37.967Z,61.30
2023-01-25T08:14:06.492Z,61.60
2023-01-25T08:16:35.120Z,61.70
2023-01-25T08:19:04.505Z,61.90
2023-01-25T08:21:36.025Z,62.00
2023-01-25T08:24:07.906Z,61.90
2023-01-25T08:26:37.033Z,61.70
2023-01-25T08:29:06.558Z,61.40
2023-01-25T08:31:36.667Z,60.90
2023-01-25T08:34:05.792Z,61.50
2023-01-25T08:36:34.513Z,61.30
2023-01-25T08:39:06.629Z,61.30
2023-01-25T08:41:36.274Z,61.20
2023-01-25T08:44:04.888Z,61.20
2023-01-25T08:46:35.017Z,61.40
2023-01-25T08:49:04.112Z,61.40
2023-01-25T08:51:33.620Z,61.40
2023-01-25T08:54:07.402Z,61.80
2023-01-25T08:56:38.273Z,61.20
2023-01-25T08:59:07.935Z,61.20
2023-01-25T09:01:36.418Z,60.80
2023-01-25T09:04:04.693Z,60.20
2023-01-25T09:06:33.761Z,60.50
2023-01-25T09:09:02.305Z,60.60
2023-01-25T09:11:36.889Z,60.40
2023-01-25T09:14:05.781Z,60.50
2023-01-25T09:16:34.075Z,60.10
2023-01-25T09:19:04.934Z,60.20
2023-01-25T09:21:34.208Z,59.70
2023-01-25T09:24:07.570Z,59.60
2023-01-25T09:26:40.159Z,60.00
2023-01-25T09:29:08.981Z,59.20
2023-01-25T09:31:40.447Z,59.10
2023-01-25T09:34:35.379Z,59.10
2023-01-25T09:37:03.755Z,58.90
2023-01-25T09:39:31.988Z,58.80
2023-01-25T09:42:28.258Z,59.10
2023-01-25T09:45:26.211Z,59.40
2023-01-25T09:47:59.816Z,59.80
2023-01-25T09:50:34.983Z,60.00
2023-01-25T09:53:38.339Z,60.00
2023-01-25T09:56:14.004Z,59.70
2023-01-25T09:58:47.694Z,59.80
2023-01-25T10:01:38.215Z,59.60
2023-01-25T10:04:14.206Z,59.60
2023-01-25T10:07:00.564Z,59.60
2023-01-25T10:09:38.545Z,59.30
2023-01-25T10:12:14.985Z,58.70
2023-01-25T10:14:44.731Z,58.60
2023-01-25T10:17:19.904Z,58.30
2023-01-25T10:20:05.428Z,57.90
2023-01-25T10:22:38.981Z,57.90
2023-01-25T10:25:22.381Z,56.70
2023-01-25T10:28:03.893Z,56.90
2023-01-25T10:30:40.098Z,57.00
2023-01-25T10:33:14.577Z,56.50
2023-01-25T10:35:47.575Z,56.80
2023-01-25T10:38:21.255Z,57.10
2023-01-25T10:40:55.069Z,57.30
2023-01-25T10:43:24.692Z,57.40
2023-01-25T10:45:55.369Z,57.20
2023-01-25T10:48:29.829Z,57.80
2023-01-25T10:51:01.598Z,58.50
2023-01-25T10:53:33.393Z,58.10
2023-01-25T10:56:25.407Z,57.80
2023-01-25T10:59:08.144Z,57.80
2023-01-25T11:01:38.628Z,58.30
2023-01-25T11:04:25.654Z,57.60
2023-01-25T11:06:53.967Z,57.70
2023-01-25T11:09:37.784Z,57.30
2023-01-25T11:12:17.967Z,57.20
2023-01-25T11:14:49.678Z,56.80
2023-01-25T11:17:30.308Z,56.60
2023-01-25T11:20:17.715Z,56.80
2023-01-25T11:22:53.936Z,57.60
2023-01-25T11:25:32.007Z,57.70
2023-01-25T11:28:18.211Z,58.20
2023-01-25T11:30:47.421Z,58.00
2023-01-25T11:33:18.906Z,57.70
2023-01-25T11:36:18.374Z,57.40
2023-01-25T11:39:01.506Z,57.40
2023-01-25T11:41:38.901Z,56.10
2023-01-25T11:44:27.036Z,56.40
2023-01-25T11:47:05.533Z,56.30
2023-01-25T11:49:47.024Z,56.20
2023-01-25T11:52:26.067Z,55.60
2023-01-25T11:55:04.737Z,56.10
2023-01-25T11:57:49.967Z,56.40
2023-01-25T12:00:53.278Z,56.00
2023-01-25T12:04:01.061Z,55.70
2023-01-25T12:06:40.011Z,55.40
2023-01-25T12:09:27.473Z,55.40
2023-01-25T12:12:10.422Z,55.30
2023-01-25T12:14:53.191Z,55.10
2023-01-25T12:17:31.774Z,54.70
2023-01-25T12:20:22.198Z,54.30
2023-01-25T12:23:16.565Z,54.20
2023-01-25T12:25:57.571Z,54.60
2023-01-25T12:28:33.128Z,54.40
2023-01-25T12:31:06.349Z,53.50
2023-01-25T12:33:39.889Z,54.00
2023-01-25T12:36:13.108Z,53.50
2023-01-25T12:38:50.337Z,53.40
2023-01-25T12:41:30.113Z,53.50
2023-01-25T12:44:07.969Z,53.50
2023-01-25T12:46:41.903Z,53.60
2023-01-25T12:49:23.884Z,53.40
2023-01-25T12:51:54.114Z,53.40
2023-01-25T12:54:34.058Z,53.30
2023-01-25T12:57:12.599Z,53.30
2023-01-25T12:59:49.611Z,53.40
2023-01-25T13:02:38.543Z,53.30
2023-01-25T13:05:20.020Z,53.30
2023-01-25T13:07:55.270Z,53.40
2023-01-25T13:10:30.671Z,53.30
2023-01-25T13:13:03.991Z,53.80
2023-01-25T13:15:41.629Z,54.00
2023-01-25T13:18:41.501Z,54.40
2023-01-25T13:21:13.864Z,54.80
2023-01-25T13:23:47.262Z,54.60
2023-01-25T13:26:55.779Z,54.30
2023-01-25T13:30:00.323Z,54.00
2023-01-25T13:32:56.251Z,53.50
2023-01-25T13:35:44.433Z,53.50
2023-01-25T13:38:36.791Z,53.60
2023-01-25T13:41:14.392Z,52.30
2023-01-25T13:43:48.316Z,52.00
2023-01-25T13:46:23.255Z,51.30
2023-01-25T13:49:05.390Z,50.90
2023-01-25T13:51:37.684Z,51.60
2023-01-25T13:54:06.191Z,51.10
2023-01-25T13:56:36.126Z,51.10
2023-01-25T13:59:04.496Z,51.20
2023-01-25T14:01:36.215Z,51.20
2023-01-25T14:04:06.363Z,51.00
2023-01-25T14:06:38.027Z,48.80
2023-01-25T14:09:16.626Z,50.00
2023-01-25T14:11:47.550Z,49.60
2023-01-25T14:14:25.308Z,49.80
2023-01-25T14:19:54.201Z,51.20
2023-01-25T14:22:29.546Z,50.70
2023-01-25T14:25:08.124Z,50.50
2023-01-25T14:27:42.046Z,50.60
2023-01-25T14:30:18.775Z,50.50
2023-01-25T14:32:48.790Z,50.30
2023-01-25T14:35:42.906Z,48.90
2023-01-25T14:38:36.713Z,50.20
2023-01-25T14:41:17.760Z,50.70
2023-01-25T14:43:49.328Z,51.60
2023-01-25T14:46:26.051Z,51.60
2023-01-25T14:49:15.715Z,52.60
2023-01-25T14:51:46.701Z,52.60
2023-01-25T14:54:20.912Z,51.70
2023-01-25T14:56:51.827Z,52.40
2023-01-25T14:59:27.146Z,51.50
2023-01-25T15:01:58.701Z,51.10
2023-01-25T15:04:28.286Z,50.70
2023-01-25T15:07:01.131Z,51.00
2023-01-25T15:09:37.566Z,51.10
2023-01-25T15:12:22.906Z,51.30
2023-01-25T15:14:53.142Z,52.40
2023-01-25T15:17:43.179Z,52.60
2023-01-25T15:20:40.463Z,52.60
2023-01-25T15:23:26.078Z,52.10
2023-01-25T15:25:55.841Z,51.70
2023-01-25T15:28:26.637Z,50.90
2023-01-25T15:30:57.650Z,50.80
2023-01-25T15:33:28.339Z,50.20
2023-01-25T15:35:58.760Z,50.10
2023-01-25T15:38:27.632Z,49.70
2023-01-25T15:41:00.440Z,49.40
2023-01-25T15:43:29.111Z,49.00
2023-01-25T15:45:57.658Z,49.00
2023-01-25T15:48:31.303Z,49.10
2023-01-25T15:51:01.180Z,49.00
2023-01-25T15:53:29.533Z,48.60
2023-01-25T15:56:01.976Z,48.50
2023-01-25T15:58:35.013Z,48.60
2023-01-25T16:01:03.701Z,48.60
2023-01-25T16:03:32.472Z,48.50
2023-01-25T16:06:05.115Z,48.10
2023-01-25T16:08:35.350Z,48.50
2023-01-25T16:11:03.639Z,48.10
2023-01-25T16:13:31.840Z,48.40
2023-01-25T16:16:00.191Z,47.70
2023-01-25T16:18:28.532Z,47.70
2023-01-25T16:20:57.178Z,47.50
2023-01-25T16:23:26.775Z,47.80
2023-01-25T16:25:55.039Z,47.90
2023-01-25T16:28:23.583Z,47.70
2023-01-25T16:30:51.867Z,47.50
2023-01-25T16:33:22.721Z,47.50
2023-01-25T16:36:05.296Z,47.50
2023-01-25T16:38:35.392Z,47.50
2023-01-25T16:41:03.709Z,47.30
2023-01-25T16:43:42.284Z,48.10
2023-01-25T16:46:17.446Z,48.10
2023-01-25T16:48:46.195Z,48.70
2023-01-25T16:51:18.979Z,49.30
2023-01-25T16:53:50.162Z,48.50
2023-01-25T16:56:19.690Z,48.10
2023-01-25T16:58:48.871Z,47.50
2023-01-25T17:01:19.411Z,47.50
2023-01-25T17:03:48.618Z,47.80
2023-01-25T17:06:19.785Z,47.50
2023-01-25T17:08:49.837Z,48.00
2023-01-25T17:11:19.951Z,47.40
2023-01-25T17:13:50.309Z,47.40
2023-01-25T17:16:18.583Z,48.40
2023-01-25T17:18:47.018Z,48.60
2023-01-25T17:21:16.840Z,47.70
2023-01-25T17:23:45.198Z,48.90
2023-01-25T17:26:16.684Z,49.70
2023-01-25T17:28:45.121Z,50.50
2023-01-25T17:31:15.779Z,49.80
2023-01-25T17:33:44.180Z,50.00
2023-01-25T17:36:15.027Z,49.30
2023-01-25T17:38:44.175Z,49.00
2023-01-25T17:41:15.705Z,48.60
2023-01-25T17:43:44.577Z,47.70
2023-01-25T17:46:14.205Z,48.30
2023-01-25T17:48:42.543Z,48.00
2023-01-25T17:51:10.731Z,47.50
2023-01-25T17:53:38.910Z,47.10
2023-01-25T17:56:08.534Z,47.30
2023-01-25T17:58:39.747Z,47.20
2023-01-25T18:01:14.198Z,47.10
2023-01-25T18:03:43.670Z,47.10
2023-01-25T18:06:14.028Z,46.90
2023-01-25T18:08:44.625Z,47.00
2023-01-25T18:11:15.836Z,47.30
2023-01-25T18:13:47.772Z,47.40
2023-01-25T18:16:17.244Z,47.90
2023-01-25T18:18:47.643Z,46.90
2023-01-25T18:21:22.057Z,47.10
2023-01-25T18:23:51.149Z,47.00
2023-01-25T18:26:20.682Z,47.00
2023-01-25T18:28:52.093Z,46.60
2023-01-25T18:31:20.396Z,46.20
2023-01-25T18:33:48.681Z,47.20
2023-01-25T18:36:17.776Z,47.60
2023-01-25T18:38:46.187Z,47.10
2023-01-25T18:41:14.427Z,47.20
2023-01-25T18:43:42.687Z,46.70
2023-01-25T18:46:12.365Z,47.20
2023-01-25T18:48:40.632Z,47.80
2023-01-25T18:51:11.536Z,48.20
2023-01-25T18:53:41.684Z,47.50
2023-01-25T18:56:13.283Z,47.70
2023-01-25T18:58:41.710Z,48.10
2023-01-25T19:01:13.955Z,47.20
2023-01-25T19:03:43.299Z,47.40
2023-01-25T19:06:12.275Z,47.00
2023-01-25T19:08:43.153Z,47.00
2023-01-25T19:11:17.801Z,47.30
2023-01-25T19:13:46.228Z,47.00
2023-01-25T19:16:17.671Z,47.50
2023-01-25T19:18:47.552Z,47.20
2023-01-25T19:21:17.816Z,46.90
2023-01-25T19:23:46.258Z,47.00
2023-01-25T19:26:16.385Z,47.10
2023-01-25T19:28:45.177Z,46.90
2023-01-25T19:31:16.377Z,47.00
2023-01-25T19:33:45.442Z,47.00
2023-01-25T19:36:18.355Z,47.40
2023-01-25T19:38:47.868Z,47.30
2023-01-25T19:41:17.913Z,47.10
2023-01-25T19:43:46.471Z,47.10
2023-01-25T19:46:18.362Z,47.10
2023-01-25T19:48:49.986Z,47.50
2023-01-25T19:51:20.286Z,47.10
2023-01-25T19:53:54.289Z,47.80
2023-01-25T19:56:23.051Z,47.60
2023-01-25T19:58:51.608Z,47.80
2023-01-25T20:01:23.127Z,47.80
2023-01-25T20:03:52.870Z,48.20
2023-01-25T20:06:22.186Z,48.30
2023-01-25T20:08:50.733Z,48.40
2023-01-25T20:11:20.623Z,48.40
2023-01-25T20:13:49.739Z,48.20
2023-01-25T20:16:18.533Z,48.30
2023-01-25T20:18:58.303Z,48.50
2023-01-25T20:21:28.070Z,47.90
2023-01-25T20:24:00.542Z,48.00
2023-01-25T20:26:42.776Z,47.50
2023-01-25T20:29:14.241Z,47.40
2023-01-25T20:31:45.441Z,47.40
2023-01-25T20:34:18.421Z,47.50
2023-01-25T20:36:47.727Z,47.70
2023-01-25T20:39:17.731Z,47.70
2023-01-25T20:41:46.675Z,47.60
2023-01-25T20:44:18.080Z,47.70
2023-01-25T20:46:46.485Z,47.90
2023-01-25T20:49:18.168Z,48.10
2023-01-25T20:51:47.615Z,47.70
2023-01-25T20:54:18.123Z,47.60
2023-01-25T20:56:47.907Z,47.60
2023-01-25T20:59:17.798Z,47.80
2023-01-25T21:01:46.729Z,47.20
2023-01-25T21:04:16.532Z,46.90
2023-01-25T21:06:44.847Z,47.00
2023-01-25T21:09:13.585Z,46.80
2023-01-25T21:11:41.809Z,47.40
2023-01-25T21:14:10.089Z,47.70
2023-01-25T21:16:38.294Z,47.70
2023-01-25T21:19:07.491Z,47.30
2023-01-25T21:21:38.502Z,47.50
2023-01-25T21:24:07.783Z,47.40
2023-01-25T21:26:38.327Z,46.80
2023-01-25T21:29:07.828Z,47.10
2023-01-25T21:31:37.831Z,47.50
2023-01-25T21:34:07.205Z,47.60
2023-01-25T21:36:36.808Z,47.70
2023-01-25T21:39:05.272Z,47.60
2023-01-25T21:41:34.431Z,47.40
2023-01-25T21:44:20.450Z,46.80
2023-01-25T21:47:15.753Z,46.80
2023-01-25T21:49:54.936Z,47.10
2023-01-25T21:52:25.179Z,47.00
2023-01-25T21:54:53.911Z,47.40
2023-01-25T21:57:22.038Z,46.90
2023-01-25T21:59:52.527Z,47.10
2023-01-25T22:02:22.090Z,47.50
2023-01-25T22:04:52.327Z,47.50
2023-01-25T22:07:20.678Z,47.60
2023-01-25T22:09:50.314Z,47.80
2023-01-25T22:12:18.729Z,48.00
2023-01-25T22:14:47.021Z,47.80
2023-01-25T22:17:15.420Z,47.70
2023-01-25T22:19:43.706Z,47.50
2023-01-25T22:22:12.055Z,47.40
2023-01-25T22:24:40.303Z,46.80
2023-01-25T22:27:31.508Z,47.30
2023-01-25T22:29:59.835Z,47.50
2023-01-25T22:32:28.059Z,46.90
2023-01-25T22:34:56.241Z,46.90
2023-01-25T22:37:24.618Z,46.90
2023-01-25T22:39:54.437Z,47.70
2023-01-25T22:42:24.273Z,47.40
2023-01-25T22:44:52.958Z,47.30
2023-01-25T22:47:21.157Z,47.50
2023-01-25T22:49:49.271Z,47.10
2023-01-25T22:52:17.498Z,47.60
2023-01-25T22:54:46.146Z,47.70
2023-01-25T22:57:14.346Z,47.30
2023-01-25T22:59:43.921Z,48.00
2023-01-25T23:02:12.251Z,47.90
2023-01-25T23:04:40.574Z,47.70
2023-01-25T23:07:18.447Z,47.90
2023-01-25T23:09:48.291Z,47.70
2023-01-25T23:12:16.580Z,48.10
2023-01-25T23:14:51.465Z,47.90
2023-01-25T23:17:38.086Z,47.80
2023-01-25T23:20:08.369Z,47.80
2023-01-25T23:22:36.745Z,47.60
2023-01-25T23:25:06.213Z,47.40
2023-01-25T23:27:34.457Z,46.80
2023-01-25T23:30:06.597Z,46.50
2023-01-25T23:32:34.763Z,46.60
2023-01-25T23:35:02.976Z,47.20
2023-01-25T23:37:31.369Z,47.20
2023-01-25T23:39:59.498Z,47.50
2023-01-25T23:42:27.693Z,47.20
2023-01-25T23:44:55.879Z,47.20
2023-01-25T23:47:25.468Z,46.80
2023-01-25T23:49:53.668Z,47.50
2023-01-25T23:52:21.832Z,47.10
2023-01-25T23:54:50.181Z,46.70
2023-01-25T23:57:18.360Z,46.70
2023-01-25T23:59:46.596Z,46.90
